Time;durP1;ratioP1;P1;durP2;ratioP2;P2;SDS_P1;SDS_P2;PMS_P1;PMS_P2;Temp;Humidity;BMP_temperature;BMP_pressure;BME280_temperature;BME280_humidity;BME280_pressure;Samples;Min_cycle;Max_cycle;Signal;HPM_P1;HPM_P2
2021/04/15 00:01:14;;;;;;;;;;;4.30;94.50;;;;;;5032840;28;19958;-83
2021/04/15 00:03:40;;;;;;;;;;;4.20;94.30;;;;;;5033251;28;20297;-83
2021/04/15 00:06:11;;;;;;;;;;;4.20;94.20;;;;;;5015370;28;19914;-82
2021/04/15 00:08:37;;;;;;;;;;;4.20;94.50;;;;;;5033270;28;19932;-83
2021/04/15 00:11:03;;;;;;;;;;;4.10;94.40;;;;;;5015092;28;20370;-84
2021/04/15 00:13:34;;;;;;;;;;;4.20;94.50;;;;;;5015425;28;20354;-83
2021/04/15 00:15:59;;;;;;;;;;;4.20;94.40;;;;;;5015422;28;20309;-83
2021/04/15 00:18:25;;;;;;;;;;;4.10;94.30;;;;;;5015493;28;19970;-84
2021/04/15 00:20:51;;;;;;;;;;;4.10;94.40;;;;;;5014817;28;19909;-83
2021/04/15 00:23:17;;;;;;;;;;;4.10;94.50;;;;;;5016225;28;19909;-84
2021/04/15 00:25:42;;;;;;;;;;;4.00;94.40;;;;;;5023453;28;19909;-83
2021/04/15 00:28:08;;;;;;;;;;;4.00;94.60;;;;;;5023355;28;19909;-82
2021/04/15 00:30:34;;;;;;;;;;;4.00;94.50;;;;;;5041514;28;19910;-82
2021/04/15 00:32:59;;;;;;;;;;;4.00;94.60;;;;;;5022908;28;20412;-82
2021/04/15 00:35:25;;;;;;;;;;;3.90;94.40;;;;;;5022787;28;19920;-83
2021/04/15 00:37:50;;;;;;;;;;;3.90;94.50;;;;;;5022947;28;19914;-83
2021/04/15 00:40:18;;;;;;;;;;;3.90;94.30;;;;;;5022382;28;20420;-82
2021/04/15 00:42:43;;;;;;;;;;;3.90;94.50;;;;;;5022222;28;19976;-82
2021/04/15 00:45:14;;;;;;;;;;;3.80;94.50;;;;;;5024046;28;20012;-82
2021/04/15 00:47:42;;;;;;;;;;;3.70;94.30;;;;;;5041934;28;19925;-83
2021/04/15 00:50:20;;;;;;;;;;;3.70;94.50;;;;;;5041240;28;19916;-83
2021/04/15 00:52:50;;;;;;;;;;;3.70;94.60;;;;;;5041655;28;19967;-82
2021/04/15 00:55:21;;;;;;;;;;;3.60;94.60;;;;;;5023161;28;19920;-83
2021/04/15 00:57:48;;;;;;;;;;;3.60;94.70;;;;;;5022595;28;19909;-84
2021/04/15 01:00:16;;;;;;;;;;;3.50;94.50;;;;;;5022835;28;19905;-83
2021/04/15 01:02:41;;;;;;;;;;;3.50;94.60;;;;;;5022065;28;19928;-83
2021/04/15 01:05:13;;;;;;;;;;;3.50;94.40;;;;;;5040562;28;19905;-83
2021/04/15 01:07:39;;;;;;;;;;;3.40;94.90;;;;;;5041040;28;19966;-83
2021/04/15 01:10:05;;;;;;;;;;;3.40;94.70;;;;;;5022720;28;20509;-82
2021/04/15 01:12:46;;;;;;;;;;;3.50;94.90;;;;;;5040878;28;19905;-83
2021/04/15 01:15:21;;;;;;;;;;;3.50;94.60;;;;;;5022680;28;19955;-82
2021/04/15 01:17:52;;;;;;;;;;;3.50;94.80;;;;;;5022325;28;19955;-83
2021/04/15 01:20:37;;;;;;;;;;;3.40;94.60;;;;;;5022221;28;19974;-82
2021/04/15 01:23:38;;;;;;;;;;;3.40;94.90;;;;;;5022515;28;19912;-83
2021/04/15 01:26:03;;;;;;;;;;;3.30;95.30;;;;;;4943742;29;19906;-83
2021/04/15 01:28:48;;;;;;;;;;;3.30;95.10;;;;;;5005622;28;19912;-82
2021/04/15 01:31:22;;;;;;;;;;;3.30;95.20;;;;;;5022403;28;19905;-82
2021/04/15 01:33:53;;;;;;;;;;;3.30;95.20;;;;;;5040565;28;19905;-82
2021/04/15 01:36:25;;;;;;;;;;;3.20;95.10;;;;;;5022418;28;19912;-82
2021/04/15 01:39:15;;;;;;;;;;;3.20;95.40;;;;;;5022636;28;20008;-82
2021/04/15 01:41:44;;;;;;;;;;;3.20;95.20;;;;;;5022676;28;19905;-82
2021/04/15 01:44:16;;;;;;;;;;;3.30;95.20;;;;;;5022612;28;19905;-83
2021/04/15 01:46:42;;;;;;;;;;;3.20;95.30;;;;;;5055359;23;19972;-84
2021/04/15 01:49:10;;;;;;;;;;;3.20;95.50;;;;;;5001708;28;19932;-84
2021/04/15 01:51:40;;;;;;;;;;;3.20;95.40;;;;;;5001205;28;19933;-85
2021/04/15 01:54:05;;;;;;;;;;;3.30;95.30;;;;;;5018973;28;20486;-84
2021/04/15 01:56:34;;;;;;;;;;;3.20;95.50;;;;;;5000985;28;19906;-84
2021/04/15 01:58:59;;;;;;;;;;;3.20;95.30;;;;;;5000821;28;20027;-85
2021/04/15 02:01:25;;;;;;;;;;;3.30;95.50;;;;;;5019440;28;19949;-84
2021/04/15 02:03:54;;;;;;;;;;;3.30;95.20;;;;;;5000776;28;19905;-84
2021/04/15 02:06:22;;;;;;;;;;;3.20;95.30;;;;;;5018803;28;19909;-84
2021/04/15 02:08:49;;;;;;;;;;;3.30;95.30;;;;;;5000837;28;19956;-85
2021/04/15 02:11:38;;;;;;;;;;;3.30;95.30;;;;;;5000923;28;19992;-85
2021/04/15 02:14:04;;;;;;;;;;;3.30;95.10;;;;;;5001224;28;20318;-85
2021/04/15 02:16:32;;;;;;;;;;;3.30;95.10;;;;;;5018788;28;19912;-84
2021/04/15 02:19:02;;;;;;;;;;;3.30;94.90;;;;;;5001111;28;19915;-86
2021/04/15 02:21:40;;;;;;;;;;;3.20;95.00;;;;;;5018903;28;19909;-84
2021/04/15 02:24:11;;;;;;;;;;;3.20;95.10;;;;;;5002927;28;19913;-84
2021/04/15 02:26:38;;;;;;;;;;;3.10;95.20;;;;;;5003621;28;19932;-87
2021/04/15 02:29:07;;;;;;;;;;;3.10;95.40;;;;;;5002482;28;20004;-85
2021/04/15 02:31:52;;;;;;;;;;;3.10;95.20;;;;;;5002885;28;19971;-85
2021/04/15 02:34:20;;;;;;;;;;;3.10;95.30;;;;;;5006773;28;19906;-85
2021/04/15 02:36:54;;;;;;;;;;;3.10;95.50;;;;;;5008716;28;19906;-87
2021/04/15 02:39:23;;;;;;;;;;;3.10;95.30;;;;;;5007582;28;19919;-84
2021/04/15 02:41:50;;;;;;;;;;;3.10;95.30;;;;;;5017907;28;20016;-85
2021/04/15 02:44:22;;;;;;;;;;;3.10;95.50;;;;;;4998491;28;19905;-84
2021/04/15 02:46:54;;;;;;;;;;;3.10;95.40;;;;;;5016310;28;19924;-84
2021/04/15 02:49:21;;;;;;;;;;;3.10;95.50;;;;;;4997997;28;19905;-85
2021/04/15 02:51:49;;;;;;;;;;;3.20;95.20;;;;;;4997567;28;19909;-85
2021/04/15 02:54:14;;;;;;;;;;;3.20;94.80;;;;;;4998027;28;19905;-85
2021/04/15 02:56:40;;;;;;;;;;;3.20;95.00;;;;;;4998083;28;19905;-84
2021/04/15 02:59:07;;;;;;;;;;;3.10;95.30;;;;;;4997660;28;20267;-84
2021/04/15 03:01:35;;;;;;;;;;;3.10;95.30;;;;;;5015201;28;19905;-84
2021/04/15 03:04:03;;;;;;;;;;;3.10;95.50;;;;;;4997516;28;20350;-84
2021/04/15 03:06:32;;;;;;;;;;;3.30;95.40;;;;;;4997779;28;19906;-85
2021/04/15 03:09:04;;;;;;;;;;;3.30;95.30;;;;;;5015596;28;19905;-84
2021/04/15 03:11:38;;;;;;;;;;;3.20;95.00;;;;;;4997855;28;19909;-84
2021/04/15 03:14:07;;;;;;;;;;;3.30;95.10;;;;;;5015745;28;19905;-84
2021/04/15 03:16:35;;;;;;;;;;;3.20;95.30;;;;;;4997892;28;19912;-85
2021/04/15 03:19:03;;;;;;;;;;;3.10;95.10;;;;;;4997644;28;20377;-86
2021/04/15 03:21:47;;;;;;;;;;;3.10;95.20;;;;;;4997641;28;19909;-84
2021/04/15 03:24:13;;;;;;;;;;;3.10;95.30;;;;;;4997341;28;20008;-85
2021/04/15 03:26:41;;;;;;;;;;;3.00;95.30;;;;;;4996683;28;19944;-85
2021/04/15 03:29:16;;;;;;;;;;;2.90;95.30;;;;;;5014608;28;19909;-84
2021/04/15 03:31:43;;;;;;;;;;;2.90;95.40;;;;;;5014883;28;19906;-84
2021/04/15 03:34:18;;;;;;;;;;;2.90;95.50;;;;;;4996811;28;19933;-85
2021/04/15 03:36:47;;;;;;;;;;;2.90;95.60;;;;;;5014315;28;19921;-84
2021/04/15 03:39:17;;;;;;;;;;;2.90;95.50;;;;;;4996846;28;19917;-84
2021/04/15 03:41:44;;;;;;;;;;;2.90;95.50;;;;;;5014715;28;20461;-84
2021/04/15 03:44:10;;;;;;;;;;;2.90;95.40;;;;;;5015090;28;19905;-85
2021/04/15 03:46:55;;;;;;;;;;;2.90;95.30;;;;;;4996964;28;20052;-84
2021/04/15 03:49:24;;;;;;;;;;;3.00;94.90;;;;;;4990187;28;19951;-85
2021/04/15 03:51:52;;;;;;;;;;;3.00;94.80;;;;;;4997051;28;19906;-84
2021/04/15 03:54:22;;;;;;;;;;;3.10;94.80;;;;;;4996801;28;19913;-84
2021/04/15 03:56:49;;;;;;;;;;;3.10;94.80;;;;;;4997276;28;19905;-84
2021/04/15 03:59:18;;;;;;;;;;;3.00;94.90;;;;;;5017281;28;19909;-85
2021/04/15 04:01:46;;;;;;;;;;;3.10;95.00;;;;;;5018693;28;19956;-85
2021/04/15 04:04:27;;;;;;;;;;;3.20;94.90;;;;;;5000935;28;19909;-84
2021/04/15 04:06:54;;;;;;;;;;;3.10;94.70;;;;;;5000777;28;19909;-84
2021/04/15 04:09:23;;;;;;;;;;;3.20;94.40;;;;;;5018707;28;19906;-85
2021/04/15 04:11:49;;;;;;;;;;;3.10;94.50;;;;;;5000786;28;19905;-84
2021/04/15 04:14:22;;;;;;;;;;;3.00;94.50;;;;;;5018297;28;19956;-84
2021/04/15 04:16:51;;;;;;;;;;;3.00;94.80;;;;;;5000626;28;20286;-84
2021/04/15 04:19:16;;;;;;;;;;;2.90;94.90;;;;;;5000563;28;20586;-85
2021/04/15 04:21:50;;;;;;;;;;;2.90;94.90;;;;;;5018620;28;19935;-86
2021/04/15 04:24:22;;;;;;;;;;;2.80;95.10;;;;;;5018025;28;19956;-85
2021/04/15 04:26:57;;;;;;;;;;;2.90;94.90;;;;;;5000563;28;19954;-84
2021/04/15 04:29:36;;;;;;;;;;;2.80;94.90;;;;;;5000595;28;19954;-85
2021/04/15 04:32:03;;;;;;;;;;;2.90;94.80;;;;;;5000861;28;19913;-85
2021/04/15 04:34:30;;;;;;;;;;;2.90;94.60;;;;;;5018864;28;19991;-85
2021/04/15 04:36:56;;;;;;;;;;;2.80;94.90;;;;;;5001177;28;20402;-87
2021/04/15 04:39:24;;;;;;;;;;;2.80;94.80;;;;;;5001585;28;20003;-84
2021/04/15 04:41:53;;;;;;;;;;;2.70;95.10;;;;;;5018867;28;19906;-85
2021/04/15 04:44:32;;;;;;;;;;;2.80;94.90;;;;;;5002238;28;19912;-85
2021/04/15 04:47:16;;;;;;;;;;;2.80;94.80;;;;;;5019189;28;20001;-85
2021/04/15 04:49:44;;;;;;;;;;;2.90;94.50;;;;;;5001994;28;19906;-84
2021/04/15 04:52:16;;;;;;;;;;;2.90;94.80;;;;;;5002605;28;19909;-85
2021/04/15 04:54:41;;;;;;;;;;;2.80;94.80;;;;;;5003163;28;19905;-85
2021/04/15 05:00:19;;;;;;;;;;;2.80;94.80;;;;;;4981710;28;20037;-84
2021/04/15 05:02:49;;;;;;;;;;;2.90;94.90;;;;;;5001722;28;19996;-84
2021/04/15 05:05:15;;;;;;;;;;;3.00;94.50;;;;;;5000681;28;19917;-85
2021/04/15 05:07:42;;;;;;;;;;;2.80;94.60;;;;;;5000392;28;19905;-85
2021/04/15 05:10:07;;;;;;;;;;;2.90;94.90;;;;;;4999736;28;20361;-84
2021/04/15 05:12:34;;;;;;;;;;;3.00;94.80;;;;;;5001021;28;19960;-86
2021/04/15 05:15:00;;;;;;;;;;;2.90;94.80;;;;;;5000207;28;19906;-84
2021/04/15 05:17:31;;;;;;;;;;;2.90;94.90;;;;;;4999790;28;19992;-85
2021/04/15 05:35:48;;;;;;;;;;;3.20;94.40;;;;;;5017870;28;19932;-84
2021/04/15 05:38:14;;;;;;;;;;;3.20;94.40;;;;;;4997030;28;19915;-84
2021/04/15 05:40:39;;;;;;;;;;;3.20;94.50;;;;;;4999574;28;20339;-84
2021/04/15 05:43:13;;;;;;;;;;;3.20;94.50;;;;;;5017586;28;19909;-84
2021/04/15 05:45:40;;;;;;;;;;;3.20;94.40;;;;;;4999912;28;20377;-85
2021/04/15 05:48:08;;;;;;;;;;;3.30;94.20;;;;;;5017225;28;20402;-85
2021/04/15 05:50:38;;;;;;;;;;;3.30;94.30;;;;;;4999673;28;19912;-85
2021/04/15 05:53:14;;;;;;;;;;;3.40;94.30;;;;;;4999471;28;20369;-85
2021/04/15 05:55:48;;;;;;;;;;;3.50;94.10;;;;;;5000231;28;19905;-85
2021/04/15 05:58:19;;;;;;;;;;;3.50;93.90;;;;;;5000144;28;19913;-84
2021/04/15 06:00:57;;;;;;;;;;;3.50;94.20;;;;;;4999637;28;19909;-84
2021/04/15 06:03:37;;;;;;;;;;;3.50;93.90;;;;;;4999783;28;19912;-87
2021/04/15 06:06:05;;;;;;;;;;;3.60;93.80;;;;;;5017333;28;19912;-84
2021/04/15 06:08:34;;;;;;;;;;;3.60;93.80;;;;;;4999551;28;19932;-86
2021/04/15 06:11:07;;;;;;;;;;;3.60;93.70;;;;;;4999506;28;20381;-85
2021/04/15 06:13:38;;;;;;;;;;;3.70;94.00;;;;;;4999606;28;19950;-86
2021/04/15 06:16:06;;;;;;;;;;;3.70;93.70;;;;;;5000117;28;19905;-85
2021/04/15 06:18:32;;;;;;;;;;;3.80;93.80;;;;;;4999571;28;19910;-85
2021/04/15 06:21:00;;;;;;;;;;;3.80;93.90;;;;;;4999594;28;19905;-85
2021/04/15 06:23:35;;;;;;;;;;;3.80;93.80;;;;;;5000298;28;20285;-85
2021/04/15 06:26:02;;;;;;;;;;;3.90;94.00;;;;;;5000344;28;19905;-88
2021/04/15 06:28:30;;;;;;;;;;;3.90;93.80;;;;;;5020792;28;20380;-84
2021/04/15 06:31:05;;;;;;;;;;;4.00;93.80;;;;;;5024590;28;19949;-84
2021/04/15 06:33:30;;;;;;;;;;;4.00;93.80;;;;;;5001607;28;19936;-85
2021/04/15 06:35:59;;;;;;;;;;;4.00;93.80;;;;;;4997849;28;19909;-85
2021/04/15 06:38:28;;;;;;;;;;;4.10;93.60;;;;;;4997020;28;19916;-84
2021/04/15 06:41:06;;;;;;;;;;;4.20;93.40;;;;;;4997326;28;19960;-85
2021/04/15 06:43:44;;;;;;;;;;;4.20;93.40;;;;;;4997909;28;19944;-85
2021/04/15 06:46:20;;;;;;;;;;;4.20;93.60;;;;;;4997107;28;19932;-85
2021/04/15 06:48:51;;;;;;;;;;;4.30;93.50;;;;;;4996983;28;19912;-84
2021/04/15 06:51:32;;;;;;;;;;;4.30;93.20;;;;;;5014524;28;19959;-84
2021/04/15 06:54:03;;;;;;;;;;;4.40;93.40;;;;;;4996893;28;19960;-84
2021/04/15 06:56:36;;;;;;;;;;;4.40;93.50;;;;;;4996954;28;20342;-84
2021/04/15 06:59:10;;;;;;;;;;;4.40;93.50;;;;;;4996848;28;20359;-84
2021/04/15 07:02:03;;;;;;;;;;;4.50;93.60;;;;;;4997148;28;19996;-85
2021/04/15 07:04:33;;;;;;;;;;;4.50;93.30;;;;;;4994422;28;20442;-85
2021/04/15 07:07:19;;;;;;;;;;;4.50;93.10;;;;;;4996645;28;19920;-85
2021/04/15 07:10:05;;;;;;;;;;;4.60;93.10;;;;;;4996737;28;20381;-84
2021/04/15 07:12:49;;;;;;;;;;;4.70;93.10;;;;;;4996313;28;19936;-84
2021/04/15 07:15:27;;;;;;;;;;;4.80;93.20;;;;;;4996730;28;19977;-84
2021/04/15 07:18:11;;;;;;;;;;;4.90;93.00;;;;;;4996468;28;19931;-85
2021/04/15 07:20:43;;;;;;;;;;;4.80;92.60;;;;;;4996574;28;19913;-84
2021/04/15 07:23:27;;;;;;;;;;;4.80;92.80;;;;;;4996516;28;19916;-85
2021/04/15 07:25:56;;;;;;;;;;;4.90;92.80;;;;;;5013903;28;19913;-85
2021/04/15 07:28:27;;;;;;;;;;;4.90;92.70;;;;;;4996370;28;20281;-84
2021/04/15 07:31:04;;;;;;;;;;;4.90;92.40;;;;;;4996257;28;20255;-85
2021/04/15 07:33:32;;;;;;;;;;;4.90;92.40;;;;;;5013017;28;19917;-85
2021/04/15 07:35:58;;;;;;;;;;;4.90;92.40;;;;;;4996520;28;19909;-85
2021/04/15 07:38:44;;;;;;;;;;;4.90;92.50;;;;;;4996199;28;19914;-85
2021/04/15 07:41:28;;;;;;;;;;;5.00;92.50;;;;;;4996296;28;19996;-84
2021/04/15 07:44:20;;;;;;;;;;;5.10;92.20;;;;;;5013942;28;19917;-84
2021/04/15 07:47:04;;;;;;;;;;;5.10;91.80;;;;;;5028846;23;20062;-83
2021/04/15 07:49:33;;;;;;;;;;;5.10;91.90;;;;;;5043327;28;19916;-84
2021/04/15 07:52:17;;;;;;;;;;;5.20;91.80;;;;;;5060809;28;19909;-83
2021/04/15 07:54:59;;;;;;;;;;;5.20;92.00;;;;;;5043813;28;19909;-83
2021/04/15 07:57:31;;;;;;;;;;;5.30;92.00;;;;;;5043928;28;19936;-84
2021/04/15 07:59:59;;;;;;;;;;;5.40;91.80;;;;;;5062084;28;19917;-83
2021/04/15 08:02:24;;;;;;;;;;;5.40;91.60;;;;;;5043395;28;19916;-83
2021/04/15 08:05:08;;;;;;;;;;;5.40;91.30;;;;;;5062093;28;19909;-83
2021/04/15 08:07:40;;;;;;;;;;;5.40;91.10;;;;;;5042697;28;19932;-83
2021/04/15 08:10:24;;;;;;;;;;;5.50;91.50;;;;;;5061979;28;19913;-83
2021/04/15 08:13:12;;;;;;;;;;;5.50;91.30;;;;;;5043768;28;19916;-83
2021/04/15 08:15:46;;;;;;;;;;;5.40;90.90;;;;;;5043894;28;20015;-83
2021/04/15 08:18:21;;;;;;;;;;;5.30;90.30;;;;;;5043927;28;19912;-83
2021/04/15 08:20:52;;;;;;;;;;;5.30;90.30;;;;;;5042206;28;20338;-83
2021/04/15 08:23:33;;;;;;;;;;;5.40;90.30;;;;;;5042693;28;19974;-83
2021/04/15 08:26:18;;;;;;;;;;;5.50;89.50;;;;;;5042121;28;19909;-83
2021/04/15 08:28:50;;;;;;;;;;;5.50;89.60;;;;;;5043236;28;19908;-84
2021/04/15 08:31:15;;;;;;;;;;;5.60;89.60;;;;;;5038621;28;19999;-84
2021/04/15 08:33:46;;;;;;;;;;;5.70;89.60;;;;;;5036696;28;20411;-83
2021/04/15 08:36:14;;;;;;;;;;;5.70;88.70;;;;;;5037432;28;20339;-84
2021/04/15 08:39:01;;;;;;;;;;;5.80;86.90;;;;;;5054962;28;19919;-85
2021/04/15 08:41:29;;;;;;;;;;;5.90;87.70;;;;;;5037182;28;20324;-85
2021/04/15 08:44:14;;;;;;;;;;;6.00;87.90;;;;;;5037353;28;19912;-84
2021/04/15 08:46:58;;;;;;;;;;;6.00;87.40;;;;;;5040141;28;20035;-84
2021/04/15 08:49:26;;;;;;;;;;;6.10;86.60;;;;;;5039980;28;20287;-85
2021/04/15 08:51:58;;;;;;;;;;;6.10;85.60;;;;;;5041053;28;20046;-83
2021/04/15 08:54:30;;;;;;;;;;;6.20;85.30;;;;;;5040928;28;19915;-85
2021/04/15 08:56:56;;;;;;;;;;;6.10;85.40;;;;;;5058153;28;19909;-84
2021/04/15 08:59:46;;;;;;;;;;;6.20;86.20;;;;;;5056982;28;20373;-84
2021/04/15 09:02:30;;;;;;;;;;;6.30;85.90;;;;;;5039895;28;19915;-84
2021/04/15 09:04:58;;;;;;;;;;;6.40;86.60;;;;;;5040219;28;19939;-83
2021/04/15 09:07:30;;;;;;;;;;;6.40;83.20;;;;;;5039405;28;19909;-83
2021/04/15 09:10:14;;;;;;;;;;;6.50;82.20;;;;;;5038733;28;19916;-83
2021/04/15 09:13:01;;;;;;;;;;;6.40;83.80;;;;;;5039104;28;19962;-84
2021/04/15 09:15:33;;;;;;;;;;;6.40;83.80;;;;;;5039596;28;20281;-84
2021/04/15 09:18:14;;;;;;;;;;;6.40;83.70;;;;;;5038453;28;19913;-83
2021/04/15 09:20:48;;;;;;;;;;;6.40;81.70;;;;;;5039135;28;19916;-85
2021/04/15 09:23:19;;;;;;;;;;;6.40;82.60;;;;;;5039597;28;19944;-84
2021/04/15 09:26:08;;;;;;;;;;;6.30;83.30;;;;;;5038529;28;19915;-84
2021/04/15 09:28:38;;;;;;;;;;;6.30;83.40;;;;;;5038672;28;20491;-82
2021/04/15 09:31:11;;;;;;;;;;;6.20;82.50;;;;;;5056177;28;20015;-84
2021/04/15 09:33:39;;;;;;;;;;;6.20;83.50;;;;;;5038025;28;19909;-84
2021/04/15 09:36:05;;;;;;;;;;;6.30;83.10;;;;;;5056374;28;19909;-84
2021/04/15 09:38:49;;;;;;;;;;;6.30;83.10;;;;;;5057167;28;19913;-83
2021/04/15 09:41:33;;;;;;;;;;;6.40;82.50;;;;;;5038511;28;19909;-84
2021/04/15 09:44:06;;;;;;;;;;;6.50;82.90;;;;;;5038741;28;19916;-83
2021/04/15 09:46:35;;;;;;;;;;;6.50;82.00;;;;;;5039445;28;19920;-83
2021/04/15 09:49:03;;;;;;;;;;;6.60;80.90;;;;;;5041174;28;19915;-83
2021/04/15 09:51:48;;;;;;;;;;;6.50;80.30;;;;;;5040008;28;19909;-84
2021/04/15 09:54:31;;;;;;;;;;;6.60;80.30;;;;;;5038177;28;20384;-83
2021/04/15 09:57:35;;;;;;;;;;;6.70;80.60;;;;;;5038176;28;20387;-83
2021/04/15 10:00:16;;;;;;;;;;;6.70;80.30;;;;;;4967099;28;19921;-83
2021/04/15 10:03:02;;;;;;;;;;;6.80;80.00;;;;;;4982790;28;19922;-82
2021/04/15 10:05:37;;;;;;;;;;;6.80;77.80;;;;;;5004533;28;20253;-82
2021/04/15 10:08:10;;;;;;;;;;;6.90;76.20;;;;;;5046138;28;19909;-82
2021/04/15 10:10:54;;;;;;;;;;;6.90;76.30;;;;;;5045884;28;19996;-83
2021/04/15 10:13:35;;;;;;;;;;;6.90;76.50;;;;;;5065555;28;19916;-82
2021/04/15 10:16:23;;;;;;;;;;;6.90;75.30;;;;;;5045974;28;19919;-83
2021/04/15 10:19:03;;;;;;;;;;;7.00;75.10;;;;;;5045779;28;19914;-84
2021/04/15 10:21:48;;;;;;;;;;;7.00;75.00;;;;;;5047126;28;20257;-82
2021/04/15 10:24:30;;;;;;;;;;;7.00;74.70;;;;;;5045481;28;19915;-83
2021/04/15 10:27:15;;;;;;;;;;;7.00;75.60;;;;;;5044592;28;20377;-83
2021/04/15 10:29:59;;;;;;;;;;;7.00;75.60;;;;;;5037474;28;19909;-84
2021/04/15 10:32:28;;;;;;;;;;;6.90;73.70;;;;;;5038283;28;19958;-83
2021/04/15 10:35:12;;;;;;;;;;;7.00;74.10;;;;;;5038736;28;19909;-83
2021/04/15 10:37:52;;;;;;;;;;;7.00;75.00;;;;;;5056634;28;19975;-84
2021/04/15 10:40:21;;;;;;;;;;;7.00;73.10;;;;;;5038497;28;19920;-84
2021/04/15 10:42:53;;;;;;;;;;;7.00;71.60;;;;;;5037359;28;19909;-84
2021/04/15 10:45:21;;;;;;;;;;;7.00;71.80;;;;;;5037755;28;19920;-83
2021/04/15 10:47:52;;;;;;;;;;;7.00;72.00;;;;;;5038578;28;20581;-84
2021/04/15 10:50:41;;;;;;;;;;;7.10;71.70;;;;;;5037499;28;19913;-83
2021/04/15 10:53:11;;;;;;;;;;;7.10;72.30;;;;;;5054351;28;20319;-83
2021/04/15 10:55:45;;;;;;;;;;;7.10;73.40;;;;;;5036808;28;20491;-84
2021/04/15 10:58:19;;;;;;;;;;;7.20;73.90;;;;;;5036415;28;20329;-84
2021/04/15 11:00:45;;;;;;;;;;;7.20;73.80;;;;;;5035833;28;19909;-84
2021/04/15 11:03:10;;;;;;;;;;;7.20;72.60;;;;;;5036502;28;19932;-84
2021/04/15 11:05:47;;;;;;;;;;;7.30;71.80;;;;;;5036432;28;19974;-83
2021/04/15 11:08:24;;;;;;;;;;;7.30;71.90;;;;;;5054251;28;20388;-84
2021/04/15 11:10:50;;;;;;;;;;;7.30;69.70;;;;;;5036686;28;20258;-83
2021/04/15 11:13:42;;;;;;;;;;;7.30;69.60;;;;;;5054662;28;20365;-83
2021/04/15 11:16:21;;;;;;;;;;;7.30;70.30;;;;;;5032749;28;19913;-83
2021/04/15 11:18:47;;;;;;;;;;;7.30;68.40;;;;;;5054115;28;19920;-83
2021/04/15 11:21:25;;;;;;;;;;;7.40;68.20;;;;;;5053702;28;20258;-84
2021/04/15 11:23:51;;;;;;;;;;;7.50;66.20;;;;;;5035959;28;19916;-83
2021/04/15 11:26:20;;;;;;;;;;;7.50;66.30;;;;;;5054239;28;20385;-84
2021/04/15 11:28:46;;;;;;;;;;;7.60;65.20;;;;;;5036079;28;19924;-82
2021/04/15 11:31:17;;;;;;;;;;;7.70;66.30;;;;;;5053548;28;19909;-84
2021/04/15 11:33:47;;;;;;;;;;;7.70;65.80;;;;;;5036715;28;20277;-84
2021/04/15 11:36:15;;;;;;;;;;;7.70;66.70;;;;;;5037665;28;19913;-84
2021/04/15 11:38:41;;;;;;;;;;;7.70;66.60;;;;;;5040977;28;19916;-83
2021/04/15 11:41:18;;;;;;;;;;;7.60;66.60;;;;;;5038749;28;19909;-83
2021/04/15 11:43:44;;;;;;;;;;;7.60;65.60;;;;;;5038029;28;19915;-83
2021/04/15 11:46:12;;;;;;;;;;;7.60;66.10;;;;;;5037773;28;19912;-84
2021/04/15 11:48:38;;;;;;;;;;;7.60;66.80;;;;;;5056069;28;19924;-83
2021/04/15 11:51:17;;;;;;;;;;;7.60;64.40;;;;;;5055733;28;19931;-83
2021/04/15 11:53:45;;;;;;;;;;;7.60;64.80;;;;;;5056467;28;19923;-83
2021/04/15 11:56:10;;;;;;;;;;;7.70;65.30;;;;;;5038249;28;19948;-84
2021/04/15 11:58:36;;;;;;;;;;;7.70;65.50;;;;;;5037223;28;19920;-84
2021/04/15 12:01:01;;;;;;;;;;;7.80;65.50;;;;;;5054250;28;19963;-84
2021/04/15 12:03:33;;;;;;;;;;;7.80;64.40;;;;;;5037420;28;20284;-83
2021/04/15 12:06:03;;;;;;;;;;;7.90;64.60;;;;;;5037894;28;19980;-84
2021/04/15 12:08:31;;;;;;;;;;;7.90;65.10;;;;;;5037394;28;20361;-83
2021/04/15 12:11:05;;;;;;;;;;;8.00;64.80;;;;;;5055310;28;19909;-84
2021/04/15 12:13:34;;;;;;;;;;;8.00;62.00;;;;;;5038191;28;19916;-85
2021/04/15 12:16:02;;;;;;;;;;;8.00;62.60;;;;;;5054822;28;19908;-84
2021/04/15 12:18:31;;;;;;;;;;;8.00;63.60;;;;;;5056217;28;20011;-84
2021/04/15 12:21:12;;;;;;;;;;;8.10;63.10;;;;;;5041462;28;20348;-85
2021/04/15 12:23:42;;;;;;;;;;;8.10;64.00;;;;;;5062234;28;20401;-85
2021/04/15 12:26:28;;;;;;;;;;;8.10;64.80;;;;;;5061877;28;19913;-85
2021/04/15 12:29:05;;;;;;;;;;;8.10;63.40;;;;;;5060616;28;19944;-86
2021/04/15 12:31:38;;;;;;;;;;;8.10;63.70;;;;;;5043538;28;19908;-85
2021/04/15 12:34:09;;;;;;;;;;;8.10;63.70;;;;;;5043624;28;19952;-85
2021/04/15 12:36:38;;;;;;;;;;;8.10;61.90;;;;;;5061246;28;19909;-85
2021/04/15 12:39:09;;;;;;;;;;;8.20;59.70;;;;;;5042539;28;19912;-85
2021/04/15 12:41:36;;;;;;;;;;;8.20;59.60;;;;;;5043894;28;19909;-85
2021/04/15 12:44:08;;;;;;;;;;;8.20;59.80;;;;;;5041696;28;19909;-85
2021/04/15 12:46:34;;;;;;;;;;;8.20;60.60;;;;;;5040714;28;19920;-85
2021/04/15 12:49:07;;;;;;;;;;;8.20;60.80;;;;;;5040645;28;19909;-85
2021/04/15 12:51:34;;;;;;;;;;;8.30;60.80;;;;;;5040905;28;20345;-85
2021/04/15 12:54:02;;;;;;;;;;;8.30;61.10;;;;;;5040872;28;19909;-85
2021/04/15 12:56:43;;;;;;;;;;;8.30;61.10;;;;;;5040670;28;19929;-85
2021/04/15 12:59:14;;;;;;;;;;;8.40;61.60;;;;;;5040035;28;19920;-85
2021/04/15 13:01:39;;;;;;;;;;;8.40;61.70;;;;;;5048291;28;19909;-84
2021/04/15 13:04:13;;;;;;;;;;;8.40;61.10;;;;;;5050274;28;19935;-84
2021/04/15 13:06:57;;;;;;;;;;;8.40;60.50;;;;;;5067690;28;19951;-83
2021/04/15 13:09:24;;;;;;;;;;;8.40;60.40;;;;;;5048102;28;20270;-84
2021/04/15 13:11:50;;;;;;;;;;;8.40;60.50;;;;;;5049814;28;19963;-83
2021/04/15 13:14:33;;;;;;;;;;;8.40;61.20;;;;;;5049970;28;20289;-84
2021/04/15 13:16:59;;;;;;;;;;;8.50;62.10;;;;;;5050205;28;19944;-83
2021/04/15 13:19:24;;;;;;;;;;;8.50;62.50;;;;;;5068031;28;19913;-84
2021/04/15 13:21:59;;;;;;;;;;;8.50;63.40;;;;;;5052319;28;19912;-84
2021/04/15 13:24:43;;;;;;;;;;;8.50;63.10;;;;;;5070958;28;19972;-84
2021/04/15 13:27:27;;;;;;;;;;;8.50;63.10;;;;;;5053088;28;20569;-84
2021/04/15 13:30:13;;;;;;;;;;;8.50;61.60;;;;;;5069784;28;19909;-84
2021/04/15 13:32:58;;;;;;;;;;;8.50;61.30;;;;;;5052212;28;20283;-85
2021/04/15 13:35:34;;;;;;;;;;;8.50;60.60;;;;;;5052112;28;19909;-83
2021/04/15 13:38:00;;;;;;;;;;;8.50;59.00;;;;;;5052195;28;19909;-84
2021/04/15 13:40:25;;;;;;;;;;;8.50;59.90;;;;;;5052153;28;19935;-83
2021/04/15 13:42:51;;;;;;;;;;;8.60;60.20;;;;;;5052244;28;19916;-84
2021/04/15 13:45:36;;;;;;;;;;;8.50;58.80;;;;;;5052108;28;20039;-83
2021/04/15 13:48:02;;;;;;;;;;;8.50;58.90;;;;;;5052341;28;19917;-84
2021/04/15 13:50:47;;;;;;;;;;;8.60;57.20;;;;;;5051346;28;19919;-84
2021/04/15 13:53:31;;;;;;;;;;;8.60;57.80;;;;;;5051368;28;19909;-83
2021/04/15 13:55:57;;;;;;;;;;;8.70;58.80;;;;;;5068704;28;19913;-83
2021/04/15 13:58:38;;;;;;;;;;;8.80;58.00;;;;;;5051338;28;19913;-83
2021/04/15 14:01:41;;;;;;;;;;;8.80;55.80;;;;;;5068079;28;19908;-84
2021/04/15 14:04:07;;;;;;;;;;;8.80;56.60;;;;;;5006331;28;19915;-84
2021/04/15 14:06:32;;;;;;;;;;;8.80;56.70;;;;;;5045906;28;19944;-84
2021/04/15 14:09:15;;;;;;;;;;;8.90;57.10;;;;;;5046269;28;19932;-83
2021/04/15 14:11:51;;;;;;;;;;;8.90;57.00;;;;;;5046623;28;19919;-84
2021/04/15 14:14:29;;;;;;;;;;;9.00;57.40;;;;;;5046807;28;20272;-84
2021/04/15 14:16:55;;;;;;;;;;;9.20;57.40;;;;;;5063945;28;19915;-84
2021/04/15 14:19:30;;;;;;;;;;;9.30;56.60;;;;;;5043679;28;19913;-83
2021/04/15 14:21:56;;;;;;;;;;;9.40;57.20;;;;;;5044930;28;19908;-84
2021/04/15 14:24:26;;;;;;;;;;;9.40;55.30;;;;;;5061907;28;19944;-83
2021/04/15 14:26:54;;;;;;;;;;;9.30;56.80;;;;;;5061430;28;19909;-83
2021/04/15 14:29:22;;;;;;;;;;;9.30;57.70;;;;;;5061063;28;19916;-83
2021/04/15 14:32:11;;;;;;;;;;;9.20;59.30;;;;;;5062205;28;19919;-83
2021/04/15 14:34:43;;;;;;;;;;;9.10;61.00;;;;;;5051929;28;19912;-83
2021/04/15 14:37:13;;;;;;;;;;;9.00;61.30;;;;;;5043563;28;19944;-83
2021/04/15 14:39:40;;;;;;;;;;;9.00;62.50;;;;;;5044960;28;19912;-84
2021/04/15 14:42:10;;;;;;;;;;;8.80;63.30;;;;;;5063191;28;19936;-83
2021/04/15 14:44:36;;;;;;;;;;;8.80;65.10;;;;;;5044544;28;19962;-84
2021/04/15 14:47:02;;;;;;;;;;;8.80;64.50;;;;;;5044524;28;19917;-83
2021/04/15 14:49:31;;;;;;;;;;;8.80;63.00;;;;;;5044609;28;19917;-83
2021/04/15 14:52:15;;;;;;;;;;;8.80;61.30;;;;;;5045065;28;19909;-83
2021/04/15 14:54:41;;;;;;;;;;;8.70;59.90;;;;;;5044696;28;20461;-84
2021/04/15 14:57:09;;;;;;;;;;;8.90;60.50;;;;;;5044928;28;19908;-83
2021/04/15 14:59:37;;;;;;;;;;;9.10;60.90;;;;;;5063173;28;19913;-84
2021/04/15 15:02:14;;;;;;;;;;;9.50;58.10;;;;;;5045335;28;19908;-84
2021/04/15 15:04:41;;;;;;;;;;;9.90;56.00;;;;;;5044984;28;19909;-84
2021/04/15 15:07:08;;;;;;;;;;;10.40;55.10;;;;;;5046011;28;20540;-85
2021/04/15 15:09:34;;;;;;;;;;;10.80;54.70;;;;;;5046124;28;19916;-84
2021/04/15 15:12:03;;;;;;;;;;;11.10;52.30;;;;;;5046049;28;19909;-84
2021/04/15 15:14:31;;;;;;;;;;;11.10;51.80;;;;;;5046992;28;19913;-84
2021/04/15 15:16:57;;;;;;;;;;;11.10;51.20;;;;;;5045860;28;19909;-84
2021/04/15 15:19:33;;;;;;;;;;;11.30;51.20;;;;;;5063950;28;19934;-83